Time;durP1;ratioP1;P1;durP2;ratioP2;P2;SDS_P1;SDS_P2;PMS_P1;PMS_P2;Temp;Humidity;BMP_temperature;BMP_pressure;BME280_temperature;BME280_humidity;BME280_pressure;Samples;Min_cycle;Max_cycle;Signal;HPM_P1;HPM_P2
2020/12/16 00:02:17;;;;;;;17.15;10.77;;;6.60;99.90;;;;;;5003511;28;20117;-82
2020/12/16 00:04:43;;;;;;;14.98;10.15;;;6.60;99.90;;;;;;5003079;28;20108;-82
2020/12/16 00:07:10;;;;;;;15.80;10.32;;;6.60;99.90;;;;;;5002185;28;20078;-82
2020/12/16 00:09:36;;;;;;;15.05;10.45;;;6.60;99.90;;;;;;5018930;28;20120;-82
2020/12/16 00:12:02;;;;;;;15.95;10.13;;;6.60;99.90;;;;;;5019524;28;20050;-82
2020/12/16 00:14:29;;;;;;;13.18;9.50;;;6.70;99.90;;;;;;5001066;28;20073;-82
2020/12/16 00:16:55;;;;;;;15.57;10.45;;;6.70;99.90;;;;;;5000104;28;20050;-82
2020/12/16 00:19:21;;;;;;;16.13;10.35;;;6.80;99.90;;;;;;5000339;28;20069;-81
2020/12/16 00:21:48;;;;;;;14.68;10.05;;;6.80;99.90;;;;;;5017256;28;20056;-82
2020/12/16 00:24:14;;;;;;;15.18;10.65;;;6.80;99.90;;;;;;5017265;28;20567;-82
2020/12/16 00:26:42;;;;;;;16.65;10.45;;;6.80;99.90;;;;;;4999460;28;20137;-82
2020/12/16 00:29:10;;;;;;;15.93;10.80;;;6.80;99.90;;;;;;4999544;28;20053;-81
2020/12/16 00:31:37;;;;;;;15.40;10.85;;;6.80;99.90;;;;;;4999671;28;20088;-82
2020/12/16 00:34:05;;;;;;;17.25;10.40;;;6.90;99.90;;;;;;4999925;28;20475;-82
2020/12/16 00:36:39;;;;;;;13.73;10.30;;;6.90;99.90;;;;;;5016541;28;20100;-82
2020/12/16 00:39:06;;;;;;;15.65;10.90;;;6.90;99.90;;;;;;5016033;28;20048;-82
2020/12/16 00:41:33;;;;;;;14.38;10.38;;;6.80;99.90;;;;;;4997611;28;20132;-81
2020/12/16 00:44:00;;;;;;;14.77;10.75;;;6.90;99.90;;;;;;4997924;28;20084;-82
2020/12/16 00:46:26;;;;;;;13.27;10.38;;;6.90;99.90;;;;;;4997243;28;20049;-82
2020/12/16 00:48:53;;;;;;;13.35;10.60;;;6.90;99.90;;;;;;5015540;28;20056;-81
2020/12/16 00:51:19;;;;;;;12.75;9.23;;;6.90;99.90;;;;;;5015910;28;20046;-81
2020/12/16 00:53:45;;;;;;;14.38;9.80;;;6.90;99.90;;;;;;5014846;28;20133;-82
2020/12/16 00:56:11;;;;;;;14.18;9.93;;;7.00;99.90;;;;;;4997466;28;20133;-82
2020/12/16 00:58:38;;;;;;;13.82;10.00;;;7.00;99.90;;;;;;4995747;28;20474;-81
2020/12/16 01:01:05;;;;;;;13.82;9.68;;;7.00;99.90;;;;;;5014410;28;20160;-81
2020/12/16 01:03:32;;;;;;;12.30;9.60;;;7.00;99.90;;;;;;5014554;28;20053;-81
2020/12/16 01:05:59;;;;;;;14.27;10.65;;;7.00;99.90;;;;;;5014636;28;20136;-81
2020/12/16 01:08:25;;;;;;;13.93;9.70;;;7.00;99.90;;;;;;5014311;28;20577;-82
2020/12/16 01:10:52;;;;;;;12.30;9.48;;;7.00;99.90;;;;;;4996552;28;20414;-82
2020/12/16 01:13:18;;;;;;;11.93;9.18;;;7.00;99.90;;;;;;5014048;28;20041;-82
2020/12/16 01:15:44;;;;;;;12.50;9.60;;;7.00;99.90;;;;;;4996439;28;20558;-82
2020/12/16 01:18:11;;;;;;;12.35;9.98;;;7.00;99.90;;;;;;5014711;28;20085;-82
2020/12/16 01:20:37;;;;;;;14.63;9.75;;;7.00;99.90;;;;;;4996661;28;20136;-82
2020/12/16 01:23:09;;;;;;;14.02;9.95;;;6.90;99.90;;;;;;4997097;28;20530;-82
2020/12/16 01:25:36;;;;;;;12.45;9.45;;;6.80;99.90;;;;;;4992900;28;20060;-82
2020/12/16 01:28:02;;;;;;;13.52;9.77;;;6.90;99.90;;;;;;4992663;28;20141;-82
2020/12/16 01:30:29;;;;;;;10.75;8.85;;;6.90;99.90;;;;;;4992823;28;20138;-81
2020/12/16 01:32:56;;;;;;;11.52;9.13;;;7.00;99.90;;;;;;4993845;28;20050;-81
2020/12/16 01:35:24;;;;;;;11.18;8.63;;;7.00;99.90;;;;;;4992415;28;20056;-81
2020/12/16 01:37:52;;;;;;;9.65;7.95;;;7.00;99.90;;;;;;4992261;28;20050;-81
2020/12/16 01:40:19;;;;;;;9.93;7.55;;;7.10;99.90;;;;;;4992285;28;20054;-81
2020/12/16 01:42:45;;;;;;;10.60;8.18;;;7.10;99.90;;;;;;4992039;28;20054;-81
2020/12/16 01:45:17;;;;;;;11.85;8.23;;;7.20;99.90;;;;;;4993619;28;20046;-82
2020/12/16 01:47:43;;;;;;;9.02;7.63;;;7.20;99.90;;;;;;4993947;28;20519;-81
2020/12/16 01:50:11;;;;;;;9.63;7.43;;;7.20;99.90;;;;;;4996760;28;20042;-82
2020/12/16 01:52:38;;;;;;;10.95;8.00;;;7.20;99.90;;;;;;4997943;28;20066;-82
2020/12/16 01:55:07;;;;;;;11.30;8.70;;;7.20;99.90;;;;;;4998426;28;20046;-82
2020/12/16 01:57:39;;;;;;;10.85;8.13;;;7.20;99.90;;;;;;4998385;28;20078;-82
2020/12/16 02:00:08;;;;;;;11.57;8.90;;;7.00;99.90;;;;;;4998358;28;20089;-82
2020/12/16 02:03:00;;;;;;;8.95;7.97;;;6.90;99.90;;;;;;4997808;28;20050;-82
2020/12/16 02:05:26;;;;;;;11.13;7.93;;;6.80;99.90;;;;;;4997886;28;20522;-82
2020/12/16 02:07:55;;;;;;;8.48;7.57;;;6.80;99.90;;;;;;4995492;28;20582;-82
2020/12/16 02:10:21;;;;;;;7.88;7.07;;;6.90;99.90;;;;;;4995571;28;20141;-82
2020/12/16 02:12:48;;;;;;;9.20;8.07;;;6.90;99.90;;;;;;4995854;28;20105;-82
2020/12/16 02:15:14;;;;;;;10.43;7.85;;;6.90;99.90;;;;;;4995137;28;20697;-82
2020/12/16 02:17:41;;;;;;;9.10;7.30;;;7.00;99.90;;;;;;4998715;28;20468;-82
2020/12/16 02:20:08;;;;;;;10.13;7.97;;;6.90;99.90;;;;;;4998060;28;20050;-82
2020/12/16 02:22:36;;;;;;;9.10;7.68;;;6.90;99.90;;;;;;4998228;28;20070;-82
2020/12/16 02:25:05;;;;;;;8.18;7.38;;;7.00;99.90;;;;;;5013118;28;20088;-82
2020/12/16 02:27:32;;;;;;;7.80;6.93;;;7.10;99.90;;;;;;5018594;28;20473;-82
2020/12/16 02:29:59;;;;;;;8.18;7.18;;;7.00;99.90;;;;;;5018114;28;20080;-82
2020/12/16 02:32:26;;;;;;;7.55;6.60;;;6.90;99.90;;;;;;5000228;28;20144;-82
2020/12/16 02:34:54;;;;;;;8.98;7.18;;;6.90;99.90;;;;;;5017925;28;20088;-82
2020/12/16 02:37:21;;;;;;;6.72;6.13;;;6.90;99.90;;;;;;4999994;28;20104;-81
2020/12/16 02:39:47;;;;;;;6.88;6.07;;;6.90;99.90;;;;;;5017484;28;20128;-82
2020/12/16 02:42:29;;;;;;;7.95;7.15;;;7.00;99.90;;;;;;5000288;28;20077;-81
2020/12/16 02:44:57;;;;;;;7.57;6.68;;;7.00;99.90;;;;;;5016937;28;20081;-82
2020/12/16 02:47:24;;;;;;;6.50;5.80;;;7.00;99.90;;;;;;4999032;28;20084;-82
2020/12/16 02:49:51;;;;;;;6.82;6.22;;;7.00;99.90;;;;;;4998981;28;20060;-82
2020/12/16 02:52:17;;;;;;;6.95;6.25;;;7.10;99.90;;;;;;4999632;28;20557;-82
2020/12/16 02:54:44;;;;;;;6.95;5.57;;;7.10;99.90;;;;;;5016542;28;20131;-82
2020/12/16 02:57:10;;;;;;;6.78;6.10;;;7.10;99.90;;;;;;5017239;28;20124;-82
2020/12/16 02:59:36;;;;;;;7.10;6.30;;;7.10;99.90;;;;;;4998687;28;20121;-81
2020/12/16 03:02:02;;;;;;;7.00;6.15;;;7.10;99.90;;;;;;5016437;28;20410;-81
2020/12/16 03:04:29;;;;;;;7.18;6.47;;;7.10;99.90;;;;;;5017544;28;20050;-81
2020/12/16 03:06:56;;;;;;;6.55;5.95;;;7.10;99.90;;;;;;5016281;28;20229;-82
2020/12/16 03:09:25;;;;;;;8.55;5.95;;;7.10;99.90;;;;;;4998779;28;20503;-82
2020/12/16 03:11:53;;;;;;;6.75;6.00;;;7.10;99.90;;;;;;4999286;28;20129;-82
2020/12/16 03:14:20;;;;;;;6.97;6.20;;;7.00;99.90;;;;;;4999151;28;20042;-81
2020/12/16 03:16:47;;;;;;;8.00;6.35;;;7.00;99.90;;;;;;4998981;28;20112;-82
2020/12/16 03:19:13;;;;;;;8.25;6.38;;;7.00;99.90;;;;;;4998553;28;20056;-82
2020/12/16 03:21:40;;;;;;;6.55;5.95;;;6.90;99.90;;;;;;4998865;28;20133;-83
2020/12/16 03:24:18;;;;;;;7.63;6.00;;;6.90;99.90;;;;;;5000331;28;20062;-82
2020/12/16 03:26:45;;;;;;;6.95;5.85;;;6.90;99.90;;;;;;4998975;28;20081;-81
2020/12/16 03:29:11;;;;;;;5.85;5.30;;;6.90;99.90;;;;;;4998877;28;20128;-82
2020/12/16 03:31:37;;;;;;;7.03;6.32;;;6.90;99.90;;;;;;5016005;28;20128;-82
2020/12/16 03:34:04;;;;;;;6.25;5.65;;;6.90;99.90;;;;;;4998446;28;20042;-82
2020/12/16 03:36:30;;;;;;;7.60;6.80;;;6.90;99.90;;;;;;5015808;28;20045;-82
2020/12/16 03:38:57;;;;;;;6.03;5.43;;;6.90;99.90;;;;;;5020337;28;20042;-82
2020/12/16 03:41:23;;;;;;;6.88;5.95;;;6.80;99.90;;;;;;5003278;28;20418;-83
2020/12/16 03:43:50;;;;;;;6.85;5.57;;;6.80;99.90;;;;;;5003046;28;20050;-82
2020/12/16 03:46:17;;;;;;;6.10;5.50;;;6.90;99.90;;;;;;5002419;28;20061;-83
2020/12/16 03:48:44;;;;;;;5.93;5.32;;;6.90;99.90;;;;;;5002319;28;20110;-83
2020/12/16 03:51:13;;;;;;;6.20;5.70;;;6.90;99.90;;;;;;5001327;28;20084;-82
2020/12/16 03:53:40;;;;;;;5.75;5.25;;;6.90;99.90;;;;;;5001222;28;20086;-82
2020/12/16 03:56:14;;;;;;;6.20;5.65;;;6.90;99.90;;;;;;5019028;28;20124;-83
2020/12/16 03:58:45;;;;;;;6.38;5.78;;;6.80;99.90;;;;;;5017909;28;20092;-82
2020/12/16 04:01:14;;;;;;;5.43;4.93;;;6.90;99.90;;;;;;5017691;28;20477;-82
2020/12/16 04:03:41;;;;;;;5.72;5.22;;;6.80;99.90;;;;;;4999977;28;20129;-82
2020/12/16 04:06:09;;;;;;;5.97;5.32;;;6.90;99.90;;;;;;5017630;28;20132;-82
2020/12/16 04:08:38;;;;;;;5.47;5.00;;;6.90;99.90;;;;;;4998740;28;20085;-82
2020/12/16 04:11:11;;;;;;;5.90;5.20;;;6.90;99.90;;;;;;5016400;28;20129;-82
2020/12/16 04:13:38;;;;;;;;;;;6.90;99.90;;;;;;4999268;28;20081;-82
2020/12/16 04:16:05;;;;;;;5.80;5.20;;;6.90;99.90;;;;;;4998869;28;19972;-82
2020/12/16 04:18:31;;;;;;;5.70;5.20;;;6.90;99.90;;;;;;4998790;28;20078;-82
2020/12/16 04:20:58;;;;;;;6.03;5.43;;;6.90;99.90;;;;;;4998656;28;20057;-82
2020/12/16 04:23:24;;;;;;;5.03;4.53;;;6.80;99.90;;;;;;4998179;28;20054;-82
2020/12/16 04:25:50;;;;;;;6.00;5.40;;;6.80;99.90;;;;;;5015821;28;20088;-82
2020/12/16 04:28:17;;;;;;;6.95;5.70;;;6.80;99.90;;;;;;5015488;28;20085;-82
2020/12/16 04:30:43;;;;;;;6.72;5.65;;;6.80;99.90;;;;;;4998029;28;20474;-82
2020/12/16 04:33:09;;;;;;;6.32;5.57;;;6.80;99.90;;;;;;4997443;28;20120;-82
2020/12/16 04:35:35;;;;;;;5.45;4.95;;;6.80;99.90;;;;;;4998234;28;20042;-82
2020/12/16 04:38:02;;;;;;;9.05;5.78;;;6.70;99.90;;;;;;5017312;28;20060;-82
2020/12/16 04:40:29;;;;;;;6.50;5.78;;;6.60;99.90;;;;;;5032133;28;20053;-79
2020/12/16 04:43:06;;;;;;;5.25;4.72;;;6.60;99.90;;;;;;5038908;28;20041;-82
2020/12/16 04:45:37;;;;;;;5.03;4.63;;;6.60;99.90;;;;;;5022387;28;20117;-80
2020/12/16 04:48:08;;;;;;;5.78;5.20;;;6.70;99.90;;;;;;5031936;28;20085;-83
2020/12/16 04:50:34;;;;;;;5.25;4.80;;;6.70;99.90;;;;;;5002040;28;20092;-83
2020/12/16 04:53:05;;;;;;;7.70;5.93;;;6.70;99.90;;;;;;5001759;28;20056;-83
2020/12/16 04:55:38;;;;;;;6.07;5.47;;;6.70;99.90;;;;;;5002664;28;20046;-82
2020/12/16 04:58:05;;;;;;;5.35;4.85;;;6.70;99.90;;;;;;5019180;28;20144;-83
2020/12/16 05:00:33;;;;;;;5.55;5.05;;;6.70;99.90;;;;;;5001034;28;20104;-83
2020/12/16 05:03:05;;;;;;;4.97;4.57;;;6.70;99.90;;;;;;5001597;28;20485;-83
2020/12/16 05:05:32;;;;;;;5.40;4.80;;;6.70;99.90;;;;;;5001627;28;20092;-82
2020/12/16 05:08:11;;;;;;;5.30;4.80;;;6.80;99.90;;;;;;5002017;28;20141;-83
2020/12/16 05:10:40;;;;;;;5.03;4.63;;;6.70;99.90;;;;;;5019133;28;20086;-83
2020/12/16 05:13:14;;;;;;;5.72;4.82;;;6.70;99.90;;;;;;5016598;28;20077;-82
2020/12/16 05:15:42;;;;;;;5.07;4.57;;;6.70;99.90;;;;;;5015688;28;20133;-82
2020/12/16 05:18:15;;;;;;;6.35;4.72;;;6.70;99.90;;;;;;5016607;28;20049;-82
2020/12/16 05:21:10;;;;;;;4.55;4.15;;;6.70;99.90;;;;;;5000755;28;20461;-83
2020/12/16 05:23:36;;;;;;;8.07;4.90;;;6.70;99.90;;;;;;4998604;28;20050;-83
2020/12/16 05:26:03;;;;;;;4.80;4.40;;;6.70;99.90;;;;;;5018233;28;20057;-83
2020/12/16 05:28:33;;;;;;;5.78;5.07;;;6.70;99.90;;;;;;5001852;28;20085;-83
2020/12/16 05:31:02;;;;;;;5.20;4.40;;;6.70;99.90;;;;;;5001758;28;20103;-83
2020/12/16 05:33:30;;;;;;;6.70;5.53;;;6.70;99.90;;;;;;5001050;28;20084;-82
2020/12/16 05:35:56;;;;;;;5.40;5.00;;;6.80;99.90;;;;;;5018234;28;20046;-83
2020/12/16 05:38:23;;;;;;;4.97;4.57;;;6.70;99.90;;;;;;5018197;28;20518;-82
2020/12/16 05:40:49;;;;;;;5.70;5.20;;;6.70;99.90;;;;;;5000801;28;20058;-82
2020/12/16 05:43:25;;;;;;;5.85;4.75;;;6.70;99.90;;;;;;5000996;28;20137;-83
2020/12/16 05:45:55;;;;;;;5.88;5.28;;;6.70;99.90;;;;;;5000619;28;20092;-82
2020/12/16 05:48:27;;;;;;;5.82;4.78;;;6.60;99.90;;;;;;5018014;28;20089;-82
2020/12/16 05:50:57;;;;;;;5.60;5.00;;;6.50;99.90;;;;;;5000098;28;20502;-82
2020/12/16 05:53:28;;;;;;;5.20;4.70;;;6.60;99.90;;;;;;5021483;28;20128;-83
2020/12/16 05:55:58;;;;;;;4.95;4.55;;;6.60;99.90;;;;;;5004508;28;20466;-82
2020/12/16 05:58:28;;;;;;;6.15;4.03;;;6.60;99.90;;;;;;5003826;28;20414;-82
2020/12/16 06:00:58;;;;;;;5.38;4.20;;;6.60;99.90;;;;;;5002582;28;20400;-83
2020/12/16 06:03:27;;;;;;;4.53;4.10;;;6.60;99.90;;;;;;5002802;28;20125;-82
2020/12/16 06:05:55;;;;;;;6.55;3.90;;;6.70;99.90;;;;;;5021331;28;20536;-83
2020/12/16 06:08:24;;;;;;;4.88;4.45;;;6.60;99.90;;;;;;5003924;28;20054;-83
2020/12/16 06:10:51;;;;;;;5.47;4.53;;;6.60;99.90;;;;;;5003243;28;20053;-82
2020/12/16 06:13:19;;;;;;;9.13;7.43;;;6.60;99.90;;;;;;5003198;28;20125;-83
2020/12/16 06:15:54;;;;;;;20.58;13.35;;;6.50;99.90;;;;;;5003710;28;20100;-82
2020/12/16 06:18:24;;;;;;;11.57;7.15;;;6.50;99.90;;;;;;5003053;28;20046;-82
2020/12/16 06:20:51;;;;;;;12.40;8.30;;;6.40;99.90;;;;;;5002703;28;20482;-82
2020/12/16 06:23:23;;;;;;;8.43;6.90;;;6.40;99.90;;;;;;5020287;28;20050;-83
2020/12/16 06:26:15;;;;;;;17.88;10.05;;;6.50;99.90;;;;;;5021125;28;20056;-83
2020/12/16 06:28:42;;;;;;;36.80;21.02;;;6.50;99.90;;;;;;5003196;28;20049;-82
2020/12/16 06:31:19;;;;;;;18.50;11.55;;;6.30;99.90;;;;;;5020721;28;20104;-82
2020/12/16 06:34:03;;;;;;;11.07;9.10;;;6.40;99.90;;;;;;5002949;28;20088;-82
2020/12/16 06:36:35;;;;;;;16.73;10.30;;;6.40;99.90;;;;;;5002916;28;20041;-82
2020/12/16 06:39:13;;;;;;;13.10;9.82;;;6.50;99.90;;;;;;5020075;28;20085;-82
2020/12/16 06:41:51;;;;;;;12.68;7.32;;;6.50;99.90;;;;;;5020864;28;20112;-82
2020/12/16 06:44:17;;;;;;;9.40;7.68;;;6.50;99.90;;;;;;5020709;28;20054;-82
2020/12/16 06:46:52;;;;;;;9.85;5.95;;;6.50;99.90;;;;;;5002621;28;20077;-82
2020/12/16 06:49:25;;;;;;;11.05;6.57;;;6.50;99.90;;;;;;5002207;28;20096;-83
2020/12/16 06:51:56;;;;;;;8.07;6.22;;;6.60;99.90;;;;;;5019859;28;20125;-82
2020/12/16 06:54:34;;;;;;;9.50;6.60;;;6.50;99.90;;;;;;5020182;28;20093;-82
2020/12/16 06:57:25;;;;;;;6.70;5.30;;;6.50;99.90;;;;;;5002840;28;20073;-82
2020/12/16 07:00:00;;;;;;;6.97;5.32;;;6.50;99.90;;;;;;5002257;28;20509;-82
2020/12/16 07:02:32;;;;;;;6.55;4.95;;;6.50;99.90;;;;;;5002230;28;20056;-82
2020/12/16 07:05:01;;;;;;;6.30;5.70;;;6.50;99.90;;;;;;5016641;28;20133;-82
2020/12/16 07:07:56;;;;;;;6.43;5.30;;;6.40;99.90;;;;;;4998769;28;20053;-81
2020/12/16 07:10:35;;;;;;;7.18;5.55;;;6.40;99.90;;;;;;4999369;28;20093;-82
2020/12/16 07:13:17;;;;;;;6.05;5.30;;;6.50;99.90;;;;;;4999569;28;20046;-82
2020/12/16 07:15:44;;;;;;;6.20;5.15;;;6.40;99.90;;;;;;4999618;28;20081;-82
2020/12/16 07:18:41;;;;;;;9.13;5.45;;;6.40;99.90;;;;;;5017703;28;20081;-82
2020/12/16 07:21:07;;;;;;;5.55;4.95;;;6.30;99.90;;;;;;5004963;28;20084;-83
2020/12/16 07:23:45;;;;;;;4.93;4.53;;;6.30;99.90;;;;;;5020120;28;20137;-83
2020/12/16 07:26:25;;;;;;;7.38;4.97;;;6.30;99.90;;;;;;5016974;28;20518;-83
2020/12/16 07:28:52;;;;;;;5.40;4.75;;;6.20;99.90;;;;;;5000487;28;20495;-84
2020/12/16 07:31:19;;;;;;;5.13;4.63;;;6.20;99.90;;;;;;5000497;28;20129;-83
2020/12/16 07:33:46;;;;;;;6.50;5.90;;;6.10;99.90;;;;;;4998797;28;20101;-83
2020/12/16 07:36:15;;;;;;;5.95;5.45;;;6.10;99.90;;;;;;5017975;28;20578;-84
2020/12/16 07:38:53;;;;;;;6.03;5.50;;;6.10;99.90;;;;;;4999258;28;20418;-83
2020/12/16 07:41:41;;;;;;;7.47;5.75;;;6.00;99.90;;;;;;5016530;28;20093;-83
2020/12/16 07:44:10;;;;;;;6.25;5.65;;;6.00;99.90;;;;;;4998836;28;20421;-83
2020/12/16 07:46:36;;;;;;;7.55;5.85;;;6.00;99.90;;;;;;4998701;28;20598;-84
2020/12/16 07:49:02;;;;;;;6.50;5.68;;;5.90;99.90;;;;;;5016706;28;20077;-83
2020/12/16 07:51:29;;;;;;;7.03;6.28;;;5.90;99.90;;;;;;4998857;28;20113;-83
2020/12/16 07:53:55;;;;;;;19.05;12.88;;;5.90;99.90;;;;;;5016537;28;20119;-83
2020/12/16 07:56:21;;;;;;;22.50;16.80;;;5.90;99.90;;;;;;4998814;28;20050;-84
2020/12/16 07:58:48;;;;;;;12.32;8.07;;;5.70;99.90;;;;;;5016294;28;20084;-83
2020/12/16 08:01:16;;;;;;;15.25;10.60;;;5.70;99.90;;;;;;4998093;28;20053;-83
2020/12/16 08:03:43;;;;;;;16.80;8.90;;;5.50;99.90;;;;;;4997480;28;20084;-83
2020/12/16 08:06:11;;;;;;;15.95;7.88;;;5.30;99.90;;;;;;4998422;28;20069;-83
2020/12/16 08:08:48;;;;;;;10.95;7.60;;;5.30;99.90;;;;;;4998032;28;20049;-83
2020/12/16 08:11:25;;;;;;;12.75;6.80;;;5.30;99.90;;;;;;4997793;28;20069;-83
2020/12/16 08:13:52;;;;;;;8.30;6.07;;;5.30;99.90;;;;;;4997288;28;20088;-83
2020/12/16 08:16:18;;;;;;;8.18;6.25;;;5.30;99.90;;;;;;5015122;28;20085;-83
2020/12/16 08:18:47;;;;;;;11.68;7.00;;;5.20;99.90;;;;;;4997532;28;20057;-83
2020/12/16 08:21:18;;;;;;;12.05;7.07;;;5.30;99.90;;;;;;5015265;28;20054;-83
2020/12/16 08:23:45;;;;;;;8.43;5.97;;;5.30;99.90;;;;;;4994579;28;20082;-83
2020/12/16 08:26:11;;;;;;;14.93;6.32;;;5.30;99.90;;;;;;4995539;28;20113;-83
2020/12/16 08:28:38;;;;;;;14.77;6.50;;;5.30;99.90;;;;;;4994488;28;20133;-83
2020/12/16 08:31:05;;;;;;;11.75;8.98;;;5.20;99.90;;;;;;4994510;28;20081;-83
2020/12/16 08:33:32;;;;;;;12.88;7.93;;;5.20;99.90;;;;;;4994331;28;20088;-83
2020/12/16 08:36:05;;;;;;;8.52;6.55;;;5.10;99.90;;;;;;4996852;28;20074;-83
2020/12/16 08:38:35;;;;;;;12.63;7.25;;;5.10;99.90;;;;;;4996499;28;20082;-83
2020/12/16 08:41:03;;;;;;;16.58;7.82;;;5.10;99.90;;;;;;4995070;28;20074;-83
2020/12/16 08:43:35;;;;;;;12.25;7.93;;;5.20;99.90;;;;;;4994153;28;20081;-83
2020/12/16 08:46:16;;;;;;;13.43;8.45;;;5.20;99.90;;;;;;4995446;28;20054;-83
2020/12/16 08:49:00;;;;;;;11.30;8.45;;;5.30;99.90;;;;;;4994124;28;20141;-83
2020/12/16 08:51:39;;;;;;;11.13;7.90;;;5.50;99.90;;;;;;4996178;28;20499;-83
2020/12/16 08:54:07;;;;;;;8.90;7.15;;;5.70;99.90;;;;;;4995317;28;20452;-83
2020/12/16 08:56:44;;;;;;;14.40;7.25;;;5.90;99.90;;;;;;4994965;28;20082;-83
2020/12/16 08:59:18;;;;;;;9.93;7.68;;;6.10;99.90;;;;;;4994307;28;20138;-83
2020/12/16 09:01:45;;;;;;;;;;;6.30;99.90;;;;;;4993812;28;20570;-83
2020/12/16 09:04:23;;;;;;;9.77;7.80;;;6.40;99.90;;;;;;4993673;28;20001;-83
2020/12/16 09:07:14;;;;;;;9.90;8.40;;;6.50;99.90;;;;;;4993414;28;20050;-83
2020/12/16 09:09:44;;;;;;;12.55;9.43;;;6.60;99.90;;;;;;4993308;28;20057;-83
2020/12/16 09:12:13;;;;;;;8.73;6.75;;;6.70;99.90;;;;;;4995380;28;20499;-84
2020/12/16 09:14:58;;;;;;;9.73;6.50;;;6.70;99.90;;;;;;4995199;28;20062;-84
2020/12/16 09:17:25;;;;;;;7.32;6.63;;;6.90;99.90;;;;;;4995701;28;20053;-84
2020/12/16 09:19:53;;;;;;;11.15;7.13;;;7.10;99.90;;;;;;4994353;28;20077;-84
2020/12/16 09:22:28;;;;;;;7.85;6.22;;;7.20;99.90;;;;;;4994258;28;20567;-83
2020/12/16 09:24:56;;;;;;;8.65;6.78;;;7.30;99.90;;;;;;4994133;28;20504;-83
2020/12/16 09:27:23;;;;;;;8.05;6.88;;;7.30;99.90;;;;;;4999466;28;20120;-84
2020/12/16 09:29:50;;;;;;;9.38;6.90;;;7.50;99.90;;;;;;4997765;28;20407;-83
2020/12/16 09:32:20;;;;;;;10.75;7.20;;;7.60;99.90;;;;;;4998836;28;20496;-83
2020/12/16 09:34:52;;;;;;;9.90;7.07;;;7.70;99.90;;;;;;4997273;28;20074;-83
2020/12/16 09:37:20;;;;;;;12.25;7.43;;;7.70;99.90;;;;;;4998009;28;20471;-83
2020/12/16 09:39:48;;;;;;;12.82;7.70;;;7.60;99.90;;;;;;4998455;28;20182;-83
2020/12/16 09:42:18;;;;;;;10.70;7.57;;;7.50;99.90;;;;;;4996682;28;20117;-83
2020/12/16 09:44:46;;;;;;;10.23;7.78;;;7.30;99.90;;;;;;4998078;28;20058;-83
2020/12/16 09:47:14;;;;;;;8.23;7.32;;;7.10;99.90;;;;;;4997849;28;20046;-83
2020/12/16 09:49:42;;;;;;;12.38;7.80;;;7.00;99.90;;;;;;4996167;28;20050;-83
2020/12/16 09:52:31;;;;;;;13.35;8.18;;;6.90;99.90;;;;;;4996014;28;20133;-84
2020/12/16 09:55:11;;;;;;;12.27;7.90;;;6.70;99.90;;;;;;4996204;28;20082;-83
2020/12/16 09:57:37;;;;;;;18.40;8.90;;;6.60;99.90;;;;;;4995963;28;20081;-83
2020/12/16 10:00:04;;;;;;;15.45;8.68;;;6.60;99.90;;;;;;4997649;28;20121;-83
2020/12/16 10:02:31;;;;;;;14.27;7.93;;;6.50;99.90;;;;;;4997246;28;20050;-83
2020/12/16 10:04:57;;;;;;;15.57;8.88;;;6.40;99.90;;;;;;4996247;28;20135;-83
2020/12/16 10:07:23;;;;;;;15.02;8.88;;;6.40;99.90;;;;;;4997064;28;20054;-83
2020/12/16 10:09:54;;;;;;;15.68;9.30;;;6.40;99.90;;;;;;4995955;28;20085;-83
2020/12/16 10:12:21;;;;;;;12.10;7.60;;;6.40;99.90;;;;;;4996052;28;20133;-83
2020/12/16 10:14:48;;;;;;;14.65;7.30;;;6.40;99.90;;;;;;4996199;28;20100;-83
2020/12/16 10:17:15;;;;;;;9.85;6.22;;;6.50;99.90;;;;;;4996186;28;20074;-83
2020/12/16 10:19:41;;;;;;;8.50;6.30;;;6.50;99.90;;;;;;4997186;28;20049;-83
2020/12/16 10:22:07;;;;;;;8.82;6.80;;;6.60;99.90;;;;;;4996176;28;20422;-83
2020/12/16 10:24:34;;;;;;;11.13;6.10;;;6.60;99.90;;;;;;4995735;28;20141;-83
2020/12/16 10:27:01;;;;;;;10.80;6.53;;;6.70;99.90;;;;;;4996035;28;20137;-83
2020/12/16 10:29:32;;;;;;;9.90;5.55;;;6.70;99.90;;;;;;4997002;28;20051;-83
2020/12/16 10:31:58;;;;;;;9.20;6.53;;;6.70;99.90;;;;;;4995648;28;20594;-83
2020/12/16 10:34:25;;;;;;;9.68;6.07;;;6.60;99.90;;;;;;4996094;28;20054;-83
2020/12/16 10:36:52;;;;;;;22.58;6.65;;;6.70;99.90;;;;;;4996526;28;20121;-83
2020/12/16 10:39:20;;;;;;;40.65;9.13;;;6.70;99.90;;;;;;4995410;28;20125;-83
2020/12/16 10:41:55;;;;;;;10.25;5.55;;;6.80;99.90;;;;;;4995496;28;20092;-83
2020/12/16 10:44:22;;;;;;;38.33;7.38;;;7.00;99.90;;;;;;4995257;28;20082;-83
2020/12/16 10:46:49;;;;;;;15.38;5.85;;;7.30;99.90;;;;;;4995389;28;20072;-83
2020/12/16 10:49:16;;;;;;;31.65;4.93;;;7.50;99.90;;;;;;4996483;28;20125;-83
2020/12/16 10:51:43;;;;;;;13.77;5.25;;;7.70;99.90;;;;;;4994805;28;20052;-83
2020/12/16 10:54:10;;;;;;;6.13;4.15;;;7.90;99.90;;;;;;4994966;28;20137;-83
2020/12/16 10:56:36;;;;;;;3.67;3.40;;;8.00;99.90;;;;;;4995424;28;20050;-83
2020/12/16 10:59:03;;;;;;;4.95;3.50;;;8.00;99.90;;;;;;4995796;28;20090;-83
2020/12/16 11:01:34;;;;;;;3.53;3.30;;;8.00;99.90;;;;;;4994540;28;20132;-83
2020/12/16 11:04:00;;;;;;;6.55;2.88;;;8.00;99.90;;;;;;4997626;28;20176;-83
2020/12/16 11:06:27;;;;;;;11.85;4.38;;;8.00;99.90;;;;;;4997575;28;20108;-83
2020/12/16 11:08:53;;;;;;;13.35;3.78;;;8.00;99.90;;;;;;4998419;28;20438;-84
2020/12/16 11:11:19;;;;;;;7.40;3.40;;;8.00;99.90;;;;;;4996466;28;20052;-83
2020/12/16 11:13:45;;;;;;;2.33;2.22;;;8.00;99.90;;;;;;4996864;28;20502;-83
2020/12/16 11:16:11;;;;;;;2.53;2.33;;;8.10;99.90;;;;;;4996198;28;20054;-83
2020/12/16 11:18:38;;;;;;;3.33;2.35;;;8.30;99.90;;;;;;4995427;28;20134;-83
2020/12/16 11:21:04;;;;;;;3.63;2.28;;;8.50;99.90;;;;;;4995949;28;20077;-83
2020/12/16 11:23:30;;;;;;;2.20;2.00;;;8.70;99.90;;;;;;4997973;28;20077;-83
2020/12/16 11:25:56;;;;;;;2.03;1.92;;;8.80;99.90;;;;;;4999301;28;20158;-83
2020/12/16 11:28:23;;;;;;;2.45;1.95;;;9.10;99.90;;;;;;4998949;28;20081;-83
2020/12/16 11:30:49;;;;;;;2.17;1.98;;;9.30;99.90;;;;;;4998611;28;20050;-83
2020/12/16 11:33:15;;;;;;;4.47;2.28;;;9.50;99.90;;;;;;4998436;28;20046;-83
2020/12/16 11:35:42;;;;;;;2.28;2.17;;;9.60;99.90;;;;;;4998786;28;20053;-81
2020/12/16 11:38:08;;;;;;;2.22;2.03;;;9.80;99.90;;;;;;4998312;28;20076;-81
2020/12/16 11:40:34;;;;;;;9.75;3.22;;;11.20;99.90;;;;;;4997765;28;20046;-80
2020/12/16 11:43:00;;;;;;;16.08;3.70;;;12.30;99.90;;;;;;5015736;28;20071;-81
2020/12/16 11:45:27;;;;;;;3.05;2.00;;;12.00;99.90;;;;;;4997601;28;20052;-81
2020/12/16 11:47:53;;;;;;;1.40;1.40;;;11.80;99.90;;;;;;4997978;28;20052;-84
2020/12/16 11:50:19;;;;;;;1.60;1.50;;;11.40;99.90;;;;;;4996916;28;20418;-83
2020/12/16 11:52:45;;;;;;;1.90;1.80;;;11.00;99.90;;;;;;4997316;28;20128;-83
2020/12/16 11:55:12;;;;;;;5.93;2.65;;;10.80;99.90;;;;;;5014870;28;20054;-83
2020/12/16 11:57:38;;;;;;;1.92;1.83;;;10.50;99.90;;;;;;5014938;28;20053;-83
2020/12/16 12:00:05;;;;;;;1.92;1.80;;;10.80;99.90;;;;;;5014706;28;20136;-81
2020/12/16 12:02:31;;;;;;;2.00;1.90;;;10.80;99.90;;;;;;4997098;28;20081;-83
2020/12/16 12:05:05;;;;;;;2.10;2.00;;;10.60;99.90;;;;;;4998473;28;20045;-83
2020/12/16 12:07:31;;;;;;;2.65;2.22;;;10.40;99.90;;;;;;5014263;28;20045;-83
2020/12/16 12:09:57;;;;;;;2.80;2.60;;;10.20;99.90;;;;;;4997007;28;20053;-83
2020/12/16 12:12:27;;;;;;;4.18;3.78;;;10.10;99.90;;;;;;4996365;28;20058;-81
2020/12/16 12:14:54;;;;;;;3.15;2.95;;;10.00;99.90;;;;;;4997716;28;20108;-83
2020/12/16 12:17:20;;;;;;;3.35;3.05;;;10.00;99.90;;;;;;5014543;28;20132;-83
2020/12/16 12:19:47;;;;;;;4.32;3.08;;;9.90;99.90;;;;;;5014189;28;20507;-83
2020/12/16 12:22:13;;;;;;;3.40;3.17;;;9.90;99.90;;;;;;4996711;28;20137;-84
2020/12/16 12:24:39;;;;;;;3.65;3.28;;;9.80;99.90;;;;;;5013958;28;20128;-81
2020/12/16 12:27:05;;;;;;;3.22;3.03;;;9.80;99.90;;;;;;4996835;28;20132;-83
2020/12/16 12:29:41;;;;;;;3.25;3.05;;;9.80;99.90;;;;;;4997835;28;20054;-83
2020/12/16 12:32:07;;;;;;;3.20;3.00;;;9.70;99.90;;;;;;4996610;28;20050;-83
2020/12/16 12:34:34;;;;;;;3.80;3.30;;;9.60;99.90;;;;;;4996104;28;20090;-83
2020/12/16 12:37:01;;;;;;;3.85;3.45;;;9.50;99.90;;;;;;5013760;28;20076;-83
2020/12/16 12:39:28;;;;;;;3.45;3.15;;;9.30;99.90;;;;;;4996327;28;20553;-83
2020/12/16 12:41:54;;;;;;;3.22;2.78;;;9.20;99.90;;;;;;4996198;28;20140;-83
2020/12/16 12:44:20;;;;;;;3.80;3.40;;;9.20;99.90;;;;;;4996244;28;20584;-83
2020/12/16 12:46:48;;;;;;;3.10;2.90;;;9.10;99.90;;;;;;4995913;28;20132;-83
2020/12/16 12:49:17;;;;;;;3.58;3.28;;;9.10;99.90;;;;;;4996083;28;20077;-83
2020/12/16 12:51:50;;;;;;;2.92;2.72;;;9.00;99.90;;;;;;5013681;28;20057;-83
2020/12/16 12:54:17;;;;;;;3.17;2.97;;;9.00;99.90;;;;;;4997783;28;20506;-84
2020/12/16 12:56:43;;;;;;;3.35;2.80;;;8.90;99.90;;;;;;4998893;28;20132;-84
2020/12/16 12:59:10;;;;;;;2.85;2.65;;;9.00;99.90;;;;;;4997812;28;20240;-84
2020/12/16 13:01:36;;;;;;;4.78;2.92;;;8.90;99.90;;;;;;4997178;28;20684;-84
2020/12/16 13:04:06;;;;;;;3.00;2.80;;;8.80;99.90;;;;;;4997704;28;20141;-83